Time;durP1;ratioP1;P1;durP2;ratioP2;P2;SDS_P1;SDS_P2;PMS_P1;PMS_P2;Temp;Humidity;BMP_temperature;BMP_pressure;BME280_temperature;BME280_humidity;BME280_pressure;Samples;Min_cycle;Max_cycle;Signal;HPM_P1;HPM_P2
2021/09/12 00:01:48;;;;;;;22.57;1.80;;;;;;;13.48;100.00;96176.63;5031909;28;24496;-77
2021/09/12 00:04:14;;;;;;;21.33;1.93;;;;;;;13.61;100.00;96179.25;5031655;28;24800;-77
2021/09/12 00:06:39;;;;;;;23.13;2.27;;;;;;;13.61;100.00;96168.81;5031377;28;24495;-77
2021/09/12 00:09:04;;;;;;;2.53;1.23;;;;;;;13.66;100.00;96168.50;5011763;28;24878;-77
2021/09/12 00:11:30;;;;;;;8.65;1.40;;;;;;;13.73;100.00;96162.78;5011583;28;24420;-77
2021/09/12 00:13:55;;;;;;;5.27;1.40;;;;;;;13.77;100.00;96168.59;5011535;28;24436;-76
2021/09/12 00:16:20;;;;;;;31.00;1.90;;;;;;;13.76;100.00;96166.94;5031348;28;25016;-77
2021/09/12 00:18:46;;;;;;;10.27;1.80;;;;;;;13.76;100.00;96172.97;5025265;28;24408;-77
2021/09/12 00:21:12;;;;;;;6.00;1.20;;;;;;;13.76;100.00;96166.94;5035642;28;24981;-77
2021/09/12 00:23:37;;;;;;;1.85;1.33;;;;;;;13.74;100.00;96180.03;5033776;28;24499;-77
2021/09/12 00:26:02;;;;;;;6.83;1.40;;;;;;;13.73;100.00;96173.19;5015197;28;24759;-78
2021/09/12 00:28:28;;;;;;;1.50;1.37;;;;;;;13.67;100.00;96175.38;5031438;28;24660;-77
2021/09/12 00:30:53;;;;;;;15.60;1.50;;;;;;;13.74;100.00;96169.63;5014680;28;25011;-78
2021/09/12 00:33:18;;;;;;;19.53;1.77;;;;;;;13.68;100.00;96170.06;5014401;28;24432;-78
2021/09/12 00:35:44;;;;;;;5.13;1.33;;;;;;;13.67;100.00;96171.00;5032237;28;24478;-76
2021/09/12 00:38:09;;;;;;;9.68;1.30;;;;;;;13.58;100.00;96176.84;5032311;28;24430;-77
2021/09/12 00:40:35;;;;;;;33.57;2.20;;;;;;;13.59;100.00;96159.44;5032414;28;24412;-77
2021/09/12 00:43:00;;;;;;;13.00;1.60;;;;;;;13.58;100.00;96171.63;5029898;28;24416;-77
2021/09/12 00:45:25;;;;;;;23.13;1.83;;;;;;;13.57;100.00;96167.34;5032158;28;24454;-77
2021/09/12 00:47:53;;;;;;;40.80;1.90;;;;;;;13.53;100.00;96161.53;5032120;28;24415;-76
2021/09/12 00:50:19;;;;;;;1.38;1.17;;;;;;;13.51;100.00;96158.19;5014615;28;24443;-77
2021/09/12 00:52:47;;;;;;;20.05;1.65;;;;;;;13.42;100.00;96160.59;5032013;28;24412;-77
2021/09/12 00:55:13;;;;;;;12.35;1.73;;;;;;;13.53;100.00;96153.75;5031910;28;24431;-77
2021/09/12 00:57:41;;;;;;;35.05;2.35;;;;;;;13.41;100.00;96164.13;5032018;28;24396;-78
2021/09/12 01:00:07;;;;;;;22.17;2.30;;;;;;;13.32;100.00;96163.81;5031887;28;24419;-78
2021/09/12 01:02:33;;;;;;;43.83;2.53;;;;;;;13.17;100.00;96159.63;5031808;28;24953;-77
2021/09/12 01:04:58;;;;;;;41.00;3.13;;;;;;;13.10;100.00;96154.94;5031734;28;24786;-77
2021/09/12 01:07:23;;;;;;;45.33;2.50;;;;;;;12.97;100.00;96154.91;5031593;28;24392;-77
2021/09/12 01:09:49;;;;;;;30.77;2.00;;;;;;;12.95;100.00;96154.19;5030465;28;24406;-77
2021/09/12 01:12:15;;;;;;;41.47;2.50;;;;;;;12.96;100.00;96153.25;5031564;28;24751;-76
2021/09/12 01:14:40;;;;;;;39.83;2.23;;;;;;;12.90;100.00;96158.84;5030152;28;24443;-76
2021/09/12 01:17:06;;;;;;;25.63;1.77;;;;;;;12.97;100.00;96153.13;5013754;28;24415;-77
2021/09/12 01:19:32;;;;;;;2.10;1.13;;;;;;;13.12;100.00;96146.06;5031544;28;24968;-76
2021/09/12 01:22:00;;;;;;;33.72;2.80;;;;;;;13.08;100.00;96144.63;5030171;28;24399;-77
2021/09/12 01:24:30;;;;;;;5.43;1.23;;;;;;;13.08;100.00;96155.03;5031293;28;24396;-76
2021/09/12 01:26:56;;;;;;;6.43;1.38;;;;;;;13.15;100.00;96148.47;5013841;28;24767;-77
2021/09/12 01:29:21;;;;;;;1.30;1.20;;;;;;;13.20;100.00;96146.41;5031426;28;24396;-77
2021/09/12 01:31:47;;;;;;;14.23;1.65;;;;;;;13.25;100.00;96148.72;5031329;28;25248;-76
2021/09/12 01:34:13;;;;;;;7.97;1.23;;;;;;;13.21;100.00;96149.84;5031084;28;24431;-76
2021/09/12 01:36:40;;;;;;;15.98;1.90;;;;;;;13.04;100.00;96143.16;5030934;28;24388;-77
2021/09/12 01:39:06;;;;;;;14.93;1.58;;;;;;;13.02;100.00;96140.69;5031221;28;24399;-77
2021/09/12 01:41:32;;;;;;;12.80;1.20;;;;;;;13.10;100.00;96140.16;5029920;28;24511;-76
2021/09/12 01:44:00;;;;;;;22.15;1.60;;;;;;;13.14;100.00;96146.00;5031110;28;24795;-76
2021/09/12 01:46:27;;;;;;;24.85;2.03;;;;;;;13.10;100.00;96145.38;5029626;28;24964;-77
2021/09/12 01:48:55;;;;;;;48.83;3.03;;;;;;;12.84;100.00;96142.72;5030906;28;24530;-77
2021/09/12 01:51:21;;;;;;;22.08;2.28;;;;;;;12.87;100.00;96144.28;5029600;28;24451;-77
2021/09/12 01:53:47;;;;;;;22.53;2.20;;;;;;;12.78;100.00;96144.88;5030439;28;24572;-76
2021/09/12 01:56:13;;;;;;;13.18;1.80;;;;;;;12.82;100.00;96147.19;5029491;28;24416;-77
2021/09/12 01:58:39;;;;;;;22.17;1.95;;;;;;;12.76;100.00;96152.78;5030958;28;24406;-76
2021/09/12 02:01:04;;;;;;;30.73;2.00;;;;;;;12.76;100.00;96145.00;5030769;28;24419;-77
2021/09/12 02:03:30;;;;;;;58.07;3.13;;;;;;;12.73;100.00;96144.38;5029575;28;25152;-76
2021/09/12 02:05:55;;;;;;;7.13;1.33;;;;;;;12.76;100.00;96139.78;5030572;28;24424;-76
2021/09/12 02:08:21;;;;;;;12.93;1.90;;;;;;;12.76;100.00;96147.59;5030758;28;24941;-76
2021/09/12 02:10:46;;;;;;;7.20;1.30;;;;;;;12.79;100.00;96144.81;5029410;28;24515;-76
2021/09/12 02:13:12;;;;;;;9.90;1.53;;;;;;;12.88;100.00;96140.75;5030464;28;24428;-76
2021/09/12 02:15:37;;;;;;;14.67;1.80;;;;;;;12.95;100.00;96141.19;5029300;28;24415;-77
2021/09/12 02:18:03;;;;;;;22.20;1.73;;;;;;;12.88;100.00;96140.75;5030595;28;24436;-76
2021/09/12 02:20:28;;;;;;;4.82;1.27;;;;;;;12.98;100.00;96139.22;5029302;28;24498;-77
2021/09/12 02:22:53;;;;;;;40.50;2.23;;;;;;;12.77;100.00;96133.66;5029355;28;24408;-76
2021/09/12 02:25:19;;;;;;;38.60;2.20;;;;;;;12.60;100.00;96126.94;5028954;28;24428;-76
2021/09/12 02:27:44;;;;;;;4.77;1.30;;;;;;;12.61;100.00;96133.00;5030501;28;24514;-76
2021/09/12 02:30:10;;;;;;;18.00;1.60;;;;;;;12.76;100.00;96124.22;5029281;28;24443;-76
2021/09/12 02:32:35;;;;;;;3.33;1.10;;;;;;;12.86;100.00;96129.59;5012887;28;24411;-76
2021/09/12 02:35:01;;;;;;;2.63;1.00;;;;;;;12.87;100.00;96120.91;5030277;28;24423;-76
2021/09/12 02:37:26;;;;;;;4.80;1.17;;;;;;;12.89;100.00;96124.22;5030229;28;24495;-77
2021/09/12 02:39:52;;;;;;;18.43;1.77;;;;;;;12.89;100.00;96121.63;5029181;28;24933;-76
2021/09/12 02:42:17;;;;;;;10.37;1.30;;;;;;;12.90;100.00;96125.03;5030437;28;24428;-76
2021/09/12 02:44:43;;;;;;;5.07;1.13;;;;;;;12.96;100.00;96129.84;5029120;28;24416;-76
2021/09/12 02:47:08;;;;;;;17.75;1.38;;;;;;;12.99;100.00;96122.69;5030162;28;24443;-76
2021/09/12 02:49:33;;;;;;;22.10;1.60;;;;;;;12.97;100.00;96116.72;5030232;28;24412;-76
2021/09/12 02:51:59;;;;;;;2.90;1.03;;;;;;;12.94;100.00;96119.56;5030292;28;24454;-76
2021/09/12 02:54:24;;;;;;;13.20;1.25;;;;;;;12.90;100.00;96117.25;5030031;28;24873;-76
2021/09/12 02:56:49;;;;;;;5.17;1.13;;;;;;;12.88;100.00;96116.53;5030044;28;24766;-77
2021/09/12 02:59:15;;;;;;;21.37;1.47;;;;;;;12.78;100.00;96119.72;5030168;28;24403;-76
2021/09/12 03:01:40;;;;;;;10.87;1.10;;;;;;;12.79;100.00;96118.81;5030088;28;24482;-76
2021/09/12 03:04:05;;;;;;;6.47;0.83;;;;;;;12.82;100.00;96122.94;5012411;28;24487;-76
2021/09/12 03:06:31;;;;;;;5.70;1.30;;;;;;;12.77;100.00;96120.66;5032396;28;24395;-76
2021/09/12 03:08:56;;;;;;;17.92;1.38;;;;;;;12.77;100.00;96120.66;5032706;28;24858;-76
2021/09/12 03:11:21;;;;;;;14.90;1.43;;;;;;;12.82;100.00;96120.34;5032719;28;24439;-77
2021/09/12 03:13:47;;;;;;;8.10;0.80;;;;;;;12.69;100.00;96125.53;5034266;28;24527;-77
2021/09/12 03:16:12;;;;;;;7.22;1.20;;;;;;;12.57;100.00;96121.16;5033676;28;24408;-78
2021/09/12 03:18:37;;;;;;;8.30;1.07;;;;;;;12.57;100.00;96123.75;5036232;28;24483;-78
2021/09/12 03:21:03;;;;;;;5.40;1.10;;;;;;;12.62;100.00;96120.84;5033340;28;24507;-78
2021/09/12 03:23:28;;;;;;;3.73;1.10;;;;;;;12.58;100.00;96123.63;5015801;28;24502;-78
2021/09/12 03:25:53;;;;;;;43.47;1.90;;;;;;;12.49;100.00;96120.78;5016285;28;24404;-78
2021/09/12 03:28:19;;;;;;;51.00;2.33;;;;;;;12.06;100.00;96115.75;5033623;28;24762;-78
2021/09/12 03:30:44;;;;;;;55.03;2.30;;;;;;;11.92;100.00;96121.81;5032335;28;24411;-78
2021/09/12 03:33:14;;;;;;;44.30;2.28;;;;;;;11.81;100.00;96114.66;5032377;28;24880;-77
2021/09/12 03:35:39;;;;;;;67.77;2.80;;;;;;;11.63;100.00;96113.19;5033137;28;24468;-78
2021/09/12 03:38:04;;;;;;;49.57;2.70;;;;;;;11.62;100.00;96106.34;5032091;28;25020;-77
2021/09/12 03:40:30;;;;;;;52.87;1.80;;;;;;;11.56;100.00;96109.31;5033576;28;24454;-77
2021/09/12 03:42:55;;;;;;;41.63;1.67;;;;;;;11.67;100.00;96109.47;5015646;28;24439;-77
2021/09/12 03:45:20;;;;;;;9.07;1.60;;;;;;;11.84;100.00;96111.91;5033307;28;24426;-77
2021/09/12 03:47:46;;;;;;;6.90;1.10;;;;;;;11.99;100.00;96109.28;5032077;28;24530;-77
2021/09/12 03:50:11;;;;;;;5.17;1.10;;;;;;;12.04;100.00;96115.00;5032224;28;24446;-78
2021/09/12 03:52:38;;;;;;;2.67;1.00;;;;;;;12.08;100.00;96113.88;5032069;28;24450;-77
2021/09/12 03:55:03;;;;;;;37.13;1.73;;;;;;;11.93;100.00;96107.91;5033112;28;24423;-77
2021/09/12 03:57:29;;;;;;;30.37;1.73;;;;;;;11.99;100.00;96110.13;5033060;28;24404;-77
2021/09/12 03:59:54;;;;;;;36.17;2.30;;;;;;;11.88;100.00;96101.34;5031818;28;24415;-77
2021/09/12 04:02:19;;;;;;;18.77;1.42;;;;;;;11.90;100.00;96102.06;5032016;28;25037;-77
2021/09/12 04:04:45;;;;;;;20.37;1.37;;;;;;;11.98;100.00;96105.03;5032860;28;24422;-77
2021/09/12 04:07:11;;;;;;;15.00;1.20;;;;;;;11.97;100.00;96103.34;5014977;28;24490;-77
2021/09/12 04:09:36;;;;;;;1.37;0.80;;;;;;;12.01;100.00;96104.81;5033005;28;24491;-77
2021/09/12 04:12:01;;;;;;;12.63;1.23;;;;;;;11.94;100.00;96108.72;5031647;28;24440;-77
2021/09/12 04:14:27;;;;;;;15.20;1.42;;;;;;;11.82;100.00;96105.09;5032780;28;24424;-77
2021/09/12 04:16:52;;;;;;;19.67;1.30;;;;;;;11.72;100.00;96107.47;5032608;28;24399;-77
2021/09/12 04:19:17;;;;;;;49.97;2.23;;;;;;;11.61;100.00;96102.09;5033294;28;24977;-77
2021/09/12 04:21:43;;;;;;;1.70;0.80;;;;;;;11.78;100.00;96114.84;5031308;28;24483;-77
2021/09/12 04:24:08;;;;;;;15.77;1.05;;;;;;;11.87;100.00;96108.31;5032544;28;24448;-77
2021/09/12 04:26:33;;;;;;;5.70;1.00;;;;;;;11.90;100.00;96102.06;5032651;28;24415;-77
2021/09/12 04:28:59;;;;;;;9.20;1.70;;;;;;;11.92;100.00;96108.00;5032550;28;24466;-77
2021/09/12 04:31:24;;;;;;;6.40;1.30;;;;;;;11.86;100.00;96106.59;5031120;28;24512;-77
2021/09/12 04:33:49;;;;;;;3.90;1.10;;;;;;;11.91;100.00;96107.19;5030961;28;24494;-77
2021/09/12 04:36:15;;;;;;;2.50;1.20;;;;;;;11.94;100.00;96106.13;5031430;28;24942;-77
2021/09/12 04:38:40;;;;;;;9.40;1.40;;;;;;;11.98;100.00;96102.44;5032589;28;24406;-77
2021/09/12 04:41:07;;;;;;;3.40;1.17;;;;;;;11.98;100.00;96102.44;5032318;28;24419;-77
2021/09/12 04:43:33;;;;;;;13.27;1.30;;;;;;;11.75;100.00;96103.81;5032318;28;24400;-77
2021/09/12 04:45:58;;;;;;;9.13;1.02;;;;;;;11.71;100.00;96110.97;5032085;28;24500;-77
2021/09/12 04:48:23;;;;;;;27.70;1.73;;;;;;;11.60;100.00;96114.22;5032150;28;24898;-77
2021/09/12 04:50:49;;;;;;;13.77;1.00;;;;;;;11.57;100.00;96116.19;5032158;28;24755;-77
2021/09/12 04:53:14;;;;;;;19.43;1.40;;;;;;;11.70;100.00;96106.69;5014208;28;24414;-77
2021/09/12 04:55:39;;;;;;;21.43;1.47;;;;;;;11.56;100.00;96114.50;5030636;28;24427;-77
2021/09/12 04:58:05;;;;;;;8.57;1.20;;;;;;;11.66;100.00;96117.38;5034535;28;24530;-77
2021/09/12 05:00:30;;;;;;;2.23;1.00;;;;;;;11.76;100.00;96124.50;5048147;28;24500;-77
2021/09/12 05:02:55;;;;;;;8.37;1.20;;;;;;;11.72;100.00;96120.44;5031443;28;24492;-78
2021/09/12 05:05:21;;;;;;;13.52;1.17;;;;;;;11.74;100.00;96115.97;5051470;28;24959;-77
2021/09/12 05:07:46;;;;;;;18.30;1.40;;;;;;;11.73;100.00;96127.28;5051661;28;24943;-78
2021/09/12 05:10:11;;;;;;;33.77;1.70;;;;;;;11.54;100.00;96126.75;5050441;28;24431;-78
2021/09/12 05:12:37;;;;;;;25.02;1.80;;;;;;;11.47;100.00;96126.28;5050182;28;24921;-77
2021/09/12 05:15:02;;;;;;;16.60;1.30;;;;;;;11.70;100.00;96121.44;5051411;28;25040;-76
2021/09/12 05:17:28;;;;;;;21.47;1.60;;;;;;;11.86;100.00;96124.78;5051239;28;24507;-77
2021/09/12 05:19:53;;;;;;;10.60;1.03;;;;;;;11.82;100.00;96121.50;5051408;28;24410;-76
2021/09/12 05:22:19;;;;;;;21.70;1.70;;;;;;;11.79;100.00;96132.09;5050100;28;24403;-76
2021/09/12 05:24:44;;;;;;;27.05;1.40;;;;;;;11.78;100.00;96125.22;5051313;28;24995;-76
2021/09/12 05:27:09;;;;;;;22.83;1.57;;;;;;;11.78;100.00;96127.81;5049937;28;24414;-76
2021/09/12 05:29:36;;;;;;;16.90;1.20;;;;;;;11.73;100.00;96127.28;5049406;28;24418;-77
2021/09/12 05:32:01;;;;;;;21.80;1.60;;;;;;;11.75;100.00;96124.56;5049948;28;24396;-76
2021/09/12 05:34:26;;;;;;;6.93;1.08;;;;;;;11.81;100.00;96125.03;5051077;28;24832;-77
2021/09/12 05:36:52;;;;;;;7.60;1.00;;;;;;;11.63;100.00;96123.56;5050901;28;24411;-76
2021/09/12 05:39:17;;;;;;;20.80;1.57;;;;;;;11.61;100.00;96126.28;5050973;28;24442;-76
2021/09/12 05:41:42;;;;;;;17.00;1.55;;;;;;;11.52;100.00;96128.59;5049662;28;24423;-77
2021/09/12 05:44:08;;;;;;;32.20;1.53;;;;;;;11.34;100.00;96125.34;5049515;28;24469;-76
2021/09/12 05:46:35;;;;;;;18.57;1.50;;;;;;;11.26;100.00;96130.16;5032702;28;24449;-76
2021/09/12 05:49:01;;;;;;;17.13;1.17;;;;;;;11.35;100.00;96127.03;5029629;28;24423;-76
2021/09/12 05:51:26;;;;;;;15.65;1.27;;;;;;;11.14;100.00;96121.34;5029480;28;24451;-76
2021/09/12 05:53:52;;;;;;;14.67;1.03;;;;;;;10.98;100.00;96125.78;5030939;28;24432;-76
2021/09/12 05:56:17;;;;;;;18.98;1.20;;;;;;;10.95;100.00;96131.16;5029500;28;24416;-76
2021/09/12 05:58:42;;;;;;;10.37;1.00;;;;;;;10.89;100.00;96134.91;5030992;28;24475;-76
2021/09/12 06:01:08;;;;;;;20.60;1.43;;;;;;;10.97;100.00;96131.88;5029001;28;24499;-77
2021/09/12 06:03:33;;;;;;;11.10;0.90;;;;;;;10.88;100.00;96128.91;5033364;28;24404;-76
2021/09/12 06:05:58;;;;;;;17.70;1.40;;;;;;;10.96;100.00;96131.03;5029570;28;24841;-77
2021/09/12 06:08:24;;;;;;;6.73;1.27;;;;;;;10.95;100.00;96131.97;5033627;28;24415;-76
2021/09/12 06:10:49;;;;;;;7.77;0.97;;;;;;;11.06;100.00;96133.94;5030804;28;24396;-75
2021/09/12 06:13:14;;;;;;;16.75;1.33;;;;;;;11.02;100.00;96133.28;5021835;28;25045;-77
2021/09/12 06:15:40;;;;;;;3.37;0.97;;;;;;;11.25;100.00;96131.09;5014389;28;24420;-77
2021/09/12 06:18:05;;;;;;;5.73;0.80;;;;;;;11.24;100.00;96132.84;5012499;28;24404;-76
2021/09/12 06:20:30;;;;;;;6.10;1.10;;;;;;;11.42;100.00;96140.44;5011599;28;24393;-77
2021/09/12 06:22:56;;;;;;;10.23;1.23;;;;;;;11.54;100.00;96134.53;5013831;28;24507;-76
2021/09/12 06:25:21;;;;;;;25.77;1.33;;;;;;;11.35;100.00;96127.03;5016976;28;24477;-76
2021/09/12 06:27:47;;;;;;;18.87;1.40;;;;;;;11.32;100.00;96135.81;5029825;28;24408;-76
2021/09/12 06:30:13;;;;;;;21.07;1.50;;;;;;;11.37;100.00;96133.78;5012658;28;24663;-76
2021/09/12 06:32:38;;;;;;;36.20;1.73;;;;;;;11.27;100.00;96137.00;5029046;28;24778;-76
2021/09/12 06:35:04;;;;;;;21.27;2.10;;;;;;;11.41;100.00;96133.59;5028972;28;24438;-76
2021/09/12 06:37:29;;;;;;;17.00;1.80;;;;;;;11.38;100.00;96134.59;5028685;28;24861;-76
2021/09/12 06:39:54;;;;;;;16.63;1.83;;;;;;;11.43;100.00;96135.19;5030362;28;24988;-77
2021/09/12 06:42:20;;;;;;;9.07;1.58;;;;;;;11.74;100.00;96139.31;5033326;28;24415;-77
2021/09/12 06:44:46;;;;;;;27.05;1.75;;;;;;;11.81;100.00;96139.78;5034595;28;25142;-77
2021/09/12 06:47:11;;;;;;;6.03;1.30;;;;;;;11.96;100.00;96138.84;5033141;28;24423;-77
2021/09/12 06:49:36;;;;;;;6.80;1.33;;;;;;;12.19;100.00;96140.00;5034827;28;24961;-77
2021/09/12 06:52:03;;;;;;;1.60;1.27;;;;;;;12.45;100.00;96146.13;5034738;28;24396;-77
2021/09/12 06:54:29;;;;;;;5.60;1.65;;;;;;;12.66;100.00;96140.50;5032759;28;24444;-78
2021/09/12 06:56:54;;;;;;;2.80;1.67;;;;;;;12.75;100.00;96147.69;5034223;28;24431;-78
2021/09/12 06:59:19;;;;;;;5.17;1.90;;;;;;;12.80;100.00;96137.84;5034322;28;24581;-77
2021/09/12 07:01:45;;;;;;;1.70;1.60;;;;;;;12.99;100.00;96145.25;5034315;28;24473;-77
2021/09/12 07:04:10;;;;;;;3.00;1.80;;;;;;;12.79;100.00;96146.53;5034174;28;24532;-77
2021/09/12 07:06:35;;;;;;;3.10;1.73;;;;;;;12.84;100.00;96140.13;5033860;28;24566;-77
2021/09/12 07:09:01;;;;;;;1.47;1.30;;;;;;;13.04;100.00;96144.00;5034192;28;24422;-77
2021/09/12 07:11:26;;;;;;;2.00;1.47;;;;;;;13.25;100.00;96146.97;5034076;28;24416;-78
2021/09/12 07:13:51;;;;;;;3.33;1.40;;;;;;;13.43;100.00;96144.06;5033741;28;24928;-76
2021/09/12 07:16:17;;;;;;;4.45;1.38;;;;;;;13.29;100.00;96145.00;5033463;28;24416;-76
2021/09/12 07:18:42;;;;;;;3.17;1.60;;;;;;;13.03;100.00;96141.50;5032620;28;24412;-76
2021/09/12 07:21:07;;;;;;;2.90;1.60;;;;;;;12.96;100.00;96141.06;5032323;28;24494;-77
2021/09/12 07:23:33;;;;;;;1.88;1.60;;;;;;;13.31;100.00;96141.34;5033614;28;24400;-76
2021/09/12 07:25:58;;;;;;;2.00;1.50;;;;;;;13.14;100.00;96154.63;5015515;28;24843;-76
2021/09/12 07:28:24;;;;;;;1.57;1.47;;;;;;;13.56;100.00;96150.91;5033522;28;24495;-76
2021/09/12 07:30:49;;;;;;;2.80;1.40;;;;;;;13.97;100.00;96157.63;5034240;28;24403;-79
2021/09/12 07:33:15;;;;;;;1.93;1.53;;;;;;;14.17;100.00;96160.59;5038527;28;24458;-78
2021/09/12 07:35:40;;;;;;;2.85;1.80;;;;;;;14.38;100.00;96156.44;5018541;28;24511;-78
2021/09/12 07:38:06;;;;;;;2.10;1.77;;;;;;;14.62;100.00;96160.88;5033812;28;24416;-78
2021/09/12 07:40:31;;;;;;;1.70;1.60;;;;;;;14.80;100.00;96167.38;5033693;28;24415;-78
2021/09/12 07:42:57;;;;;;;2.23;1.50;;;;;;;15.12;100.00;96161.53;5043985;28;24546;-78
2021/09/12 07:45:22;;;;;;;1.83;1.67;;;;;;;15.49;100.00;96159.59;5034350;28;24511;-78
2021/09/12 07:47:47;;;;;;;2.70;1.80;;;;;;;15.50;100.00;96169.09;5033447;28;24392;-78
2021/09/12 07:50:13;;;;;;;1.70;1.60;;;;;;;15.82;100.00;96161.41;5033363;28;24400;-77
2021/09/12 07:52:42;;;;;;;1.67;1.57;;;;;;;15.89;99.35;96164.41;5032896;28;24495;-78
2021/09/12 07:55:12;;;;;;;3.13;2.17;;;;;;;15.64;100.00;96171.47;5036206;28;24992;-79
2021/09/12 07:57:37;;;;;;;2.65;2.30;;;;;;;15.68;100.00;96166.88;5035395;28;24470;-78
2021/09/12 08:00:04;;;;;;;3.40;1.93;;;;;;;16.01;100.00;96168.66;5035627;28;24799;-79
2021/09/12 08:02:29;;;;;;;2.85;1.65;;;;;;;16.46;100.00;96163.34;5034143;28;24424;-78
2021/09/12 08:04:55;;;;;;;2.67;1.70;;;;;;;16.45;97.04;96175.59;5036214;28;24466;-79
2021/09/12 08:07:20;;;;;;;2.60;2.00;;;;;;;16.05;100.00;96170.06;5034127;28;24451;-79
2021/09/12 08:09:45;;;;;;;3.73;1.67;;;;;;;16.04;100.00;96173.66;5034093;28;24511;-79
2021/09/12 08:12:11;;;;;;;3.13;1.90;;;;;;;16.39;98.61;96172.66;5034129;28;24547;-80
2021/09/12 08:14:37;;;;;;;2.00;1.80;;;;;;;16.29;99.36;96171.72;5035272;28;24432;-80
2021/09/12 08:17:02;;;;;;;1.73;1.63;;;;;;;16.15;100.00;96172.81;5034933;28;24490;-82
2021/09/12 08:19:28;;;;;;;3.60;2.20;;;;;;;16.30;99.47;96179.44;5035155;28;24478;-81
2021/09/12 08:21:53;;;;;;;3.63;1.90;;;;;;;16.92;100.00;96180.59;5035463;28;24491;-79
2021/09/12 08:24:19;;;;;;;1.92;1.63;;;;;;;17.41;100.00;96172.13;5037863;28;24479;-81
2021/09/12 08:26:44;;;;;;;1.70;1.48;;;;;;;17.68;98.95;96173.38;5043949;28;24412;-79
2021/09/12 08:29:09;;;;;;;2.30;1.67;;;;;;;18.08;96.21;96175.25;5032605;28;24415;-80
2021/09/12 08:31:35;;;;;;;2.50;1.63;;;;;;;18.30;90.90;96172.44;5037539;28;24416;-79
2021/09/12 08:34:00;;;;;;;3.27;1.83;;;;;;;18.64;95.31;96177.31;5036821;28;24446;-81
2021/09/12 08:36:25;;;;;;;2.40;1.63;;;;;;;18.36;89.38;96173.69;5034861;28;24403;-78
2021/09/12 08:38:51;;;;;;;2.10;1.60;;;;;;;18.68;91.50;96183.13;5035651;28;24408;-81
2021/09/12 08:41:18;;;;;;;2.37;1.90;;;;;;;18.57;88.44;96181.44;5035343;28;24403;-80
2021/09/12 08:43:46;;;;;;;1.95;1.70;;;;;;;18.01;88.33;96174.94;5021973;28;24551;-78
2021/09/12 08:46:13;;;;;;;3.20;1.70;;;;;;;18.44;91.09;96178.25;5033704;28;24787;-77
2021/09/12 08:48:39;;;;;;;2.08;1.30;;;;;;;18.63;83.83;96175.66;5034165;28;24415;-79
2021/09/12 08:51:04;;;;;;;1.90;1.63;;;;;;;18.77;83.78;96177.94;5013388;28;25546;-81
2021/09/12 08:53:30;;;;;;;2.00;1.60;;;;;;;19.02;84.80;96179.19;5035533;28;24440;-79
2021/09/12 08:55:55;;;;;;;3.40;1.55;;;;;;;19.15;88.47;96180.69;5032937;28;24482;-83
2021/09/12 08:58:21;;;;;;;3.40;1.70;;;;;;;19.61;87.36;96169.41;5034554;28;24758;-82
2021/09/12 09:00:46;;;;;;;3.90;1.67;;;;;;;20.13;84.17;96172.44;5033530;28;24587;-77
2021/09/12 09:03:12;;;;;;;2.30;1.50;;;;;;;20.31;83.33;96169.88;5031799;28;24431;-81
2021/09/12 09:05:42;;;;;;;2.83;1.80;;;;;;;20.19;74.38;96176.31;5032823;28;24428;-81
2021/09/12 09:08:17;;;;;;;4.53;1.50;;;;;;;20.46;76.69;96168.41;5036568;28;24467;-82
2021/09/12 09:10:50;;;;;;;2.40;1.35;;;;;;;20.25;78.07;96171.31;5053628;28;24443;-81
2021/09/12 09:13:37;;;;;;;1.67;1.42;;;;;;;20.63;79.66;96176.53;5051896;28;24416;-82
2021/09/12 09:16:08;;;;;;;2.13;1.40;;;;;;;20.60;74.83;96175.00;5046038;28;24434;-82
2021/09/12 09:18:39;;;;;;;2.08;1.30;;;;;;;20.44;73.70;96166.91;5035381;28;24472;-83
2021/09/12 09:21:27;;;;;;;2.13;1.25;;;;;;;20.92;71.44;96174.50;5036596;28;24424;-83
2021/09/12 09:24:23;;;;;;;2.55;1.70;;;;;;;21.14;68.98;96167.13;5036667;28;24471;-82
2021/09/12 09:26:50;;;;;;;2.72;1.38;;;;;;;20.90;72.51;96160.66;5033270;28;24427;-81
2021/09/12 09:29:25;;;;;;;2.77;1.40;;;;;;;21.40;72.14;96162.75;5036546;28;24782;-83
2021/09/12 09:32:04;;;;;;;2.00;1.33;;;;;;;21.72;75.44;96156.84;5033058;28;24436;-83
2021/09/12 09:34:29;;;;;;;2.33;1.37;;;;;;;21.75;70.66;96159.19;5035420;28;24853;-82
2021/09/12 09:37:12;;;;;;;3.13;1.50;;;;;;;21.92;70.72;96157.47;5017847;28;24471;-82
2021/09/12 09:39:48;;;;;;;4.53;1.35;;;;;;;22.08;68.12;96154.09;5031047;28;24420;-80
2021/09/12 09:42:34;;;;;;;1.58;1.20;;;;;;;22.15;66.15;96162.25;5034348;28;24475;-80
2021/09/12 09:45:07;;;;;;;2.40;1.30;;;;;;;22.19;68.51;96153.00;5039436;28;24428;-79
2021/09/12 09:47:33;;;;;;;2.97;1.50;;;;;;;22.29;64.50;96158.19;5040938;28;24475;-79
2021/09/12 09:50:14;;;;;;;2.95;1.25;;;;;;;22.33;67.29;96151.59;5043334;28;24412;-79
2021/09/12 09:52:46;;;;;;;1.88;1.50;;;;;;;22.45;67.11;96153.75;5042594;28;24410;-79
2021/09/12 09:55:15;;;;;;;1.83;1.23;;;;;;;22.28;64.65;96153.88;5023591;28;25064;-79
2021/09/12 09:57:43;;;;;;;2.15;1.30;;;;;;;22.28;69.27;96152.03;5036444;28;24431;-80
2021/09/12 10:00:08;;;;;;;1.67;1.30;;;;;;;22.49;64.17;96154.28;5036183;28;24414;-80
2021/09/12 10:02:34;;;;;;;3.47;1.35;;;;;;;22.36;65.26;96157.38;5017921;28;24406;-80
2021/09/12 10:05:01;;;;;;;1.40;1.10;;;;;;;;;;5036498;28;24965;-79
2021/09/12 10:07:27;;;;;;;1.40;1.00;;;;;;;22.43;68.30;96161.03;5034620;28;24495;-78
2021/09/12 10:09:53;;;;;;;4.22;1.10;;;;;;;22.19;66.20;96153.84;5017321;28;24458;-81
2021/09/12 10:12:19;;;;;;;2.27;1.30;;;;;;;22.01;65.84;96149.59;5034211;28;24474;-80
2021/09/12 10:14:52;;;;;;;1.87;1.20;;;;;;;21.51;62.50;96151.16;5035500;28;24486;-81
2021/09/12 10:17:24;;;;;;;3.25;1.30;;;;;;;21.74;62.53;96154.09;5033303;28;24787;-81
2021/09/12 10:20:06;;;;;;;1.92;1.20;;;;;;;21.50;61.13;96149.47;5034024;28;24427;-81
2021/09/12 10:22:48;;;;;;;3.05;1.10;;;;;;;21.67;66.87;96148.59;5033751;28;24502;-81
2021/09/12 10:25:15;;;;;;;2.45;1.17;;;;;;;22.02;70.76;96144.16;5033639;28;24416;-80
2021/09/12 10:27:42;;;;;;;1.95;1.10;;;;;;;21.54;61.48;96144.72;5033107;28;24408;-80
2021/09/12 10:30:28;;;;;;;3.17;1.48;;;;;;;21.21;63.20;96141.81;5035252;28;24403;-80
2021/09/12 10:33:11;;;;;;;2.03;1.15;;;;;;;21.79;65.74;96140.44;5033630;28;24399;-80
2021/09/12 10:35:44;;;;;;;3.53;1.40;;;;;;;22.40;66.09;96137.59;5031588;28;24404;-80
2021/09/12 10:38:13;;;;;;;1.80;0.98;;;;;;;22.34;65.73;96140.03;5033060;28;24913;-80
2021/09/12 10:40:50;;;;;;;2.05;1.30;;;;;;;22.33;69.73;96133.94;5032360;28;24404;-80
2021/09/12 10:43:24;;;;;;;1.90;1.30;;;;;;;22.41;67.23;96133.13;5033356;28;24537;-79
2021/09/12 10:46:02;;;;;;;2.00;1.25;;;;;;;22.29;63.44;96134.44;5033697;28;24410;-80
2021/09/12 10:48:29;;;;;;;1.70;1.20;;;;;;;22.18;63.28;96130.25;5032168;28;24769;-80
2021/09/12 10:50:55;;;;;;;1.40;1.00;;;;;;;22.19;61.89;96127.47;5031800;28;24554;-80
2021/09/12 10:53:43;;;;;;;2.08;1.40;;;;;;;22.31;69.45;96124.53;5013712;28;24487;-80
2021/09/12 10:56:09;;;;;;;1.63;0.93;;;;;;;22.68;70.83;96121.47;5035558;28;24992;-81
2021/09/12 10:58:35;;;;;;;2.40;1.23;;;;;;;22.88;60.11;96128.13;5031125;28;24420;-80
2021/09/12 11:01:02;;;;;;;1.47;1.00;;;;;;;22.62;68.86;96120.31;5032764;28;24419;-81
2021/09/12 11:03:28;;;;;;;3.70;1.30;;;;;;;22.86;65.79;96124.81;5032927;28;25097;-79
2021/09/12 11:05:53;;;;;;;3.15;1.17;;;;;;;22.85;69.05;96127.63;5031471;28;24462;-79
2021/09/12 11:08:19;;;;;;;1.67;1.10;;;;;;;22.73;60.38;96124.47;5033957;28;24403;-79
2021/09/12 11:10:47;;;;;;;1.97;1.30;;;;;;;22.75;63.64;96117.19;5032978;28;24400;-79
2021/09/12 11:13:23;;;;;;;2.45;1.33;;;;;;;22.21;60.87;96112.31;5034016;28;24805;-79
2021/09/12 11:15:50;;;;;;;1.25;1.13;;;;;;;22.25;64.03;96112.81;5032892;28;24471;-79
2021/09/12 11:18:16;;;;;;;1.95;1.25;;;;;;;22.32;61.64;96113.81;5033855;28;24836;-80
2021/09/12 11:20:45;;;;;;;1.70;1.40;;;;;;;22.05;63.70;96108.75;5031827;28;24499;-80
2021/09/12 11:23:25;;;;;;;1.92;1.27;;;;;;;22.22;66.68;96113.13;5031406;28;24400;-79